sensor_id;sensor_type;location;lat;lon;timestamp;P1;durP1;ratioP1;P2;durP2;ratioP2
8538;SDS011;4307;53.868;11.680;2023-04-04T00:00:21;7.27;;;1.70;;
8538;SDS011;4307;53.868;11.680;2023-04-04T00:02:48;2.80;;;1.70;;
8538;SDS011;4307;53.868;11.680;2023-04-04T00:05:15;1.53;;;1.43;;
8538;SDS011;4307;53.868;11.680;2023-04-04T00:07:44;3.67;;;1.47;;
8538;SDS011;4307;53.868;11.680;2023-04-04T00:10:12;2.60;;;1.60;;
8538;SDS011;4307;53.868;11.680;2023-04-04T00:12:39;2.43;;;1.57;;
8538;SDS011;4307;53.868;11.680;2023-04-04T00:15:06;1.23;;;0.93;;
8538;SDS011;4307;53.868;11.680;2023-04-04T00:17:34;2.83;;;1.40;;
8538;SDS011;4307;53.868;11.680;2023-04-04T00:20:00;1.13;;;1.03;;
8538;SDS011;4307;53.868;11.680;2023-04-04T00:22:28;3.10;;;1.47;;
8538;SDS011;4307;53.868;11.680;2023-04-04T00:24:55;2.33;;;1.40;;
8538;SDS011;4307;53.868;11.680;2023-04-04T00:27:23;2.73;;;1.30;;
8538;SDS011;4307;53.868;11.680;2023-04-04T00:29:50;1.70;;;1.10;;
8538;SDS011;4307;53.868;11.680;2023-04-04T00:32:16;2.10;;;2.00;;
8538;SDS011;4307;53.868;11.680;2023-04-04T00:34:43;2.20;;;1.50;;
8538;SDS011;4307;53.868;11.680;2023-04-04T00:37:10;2.60;;;1.77;;
8538;SDS011;4307;53.868;11.680;2023-04-04T00:39:37;2.97;;;1.40;;
8538;SDS011;4307;53.868;11.680;2023-04-04T00:42:04;4.03;;;1.47;;
8538;SDS011;4307;53.868;11.680;2023-04-04T00:44:32;1.37;;;1.27;;
8538;SDS011;4307;53.868;11.680;2023-04-04T00:47:00;2.17;;;1.40;;
8538;SDS011;4307;53.868;11.680;2023-04-04T00:49:27;2.17;;;1.97;;
8538;SDS011;4307;53.868;11.680;2023-04-04T00:51:53;2.73;;;1.50;;
8538;SDS011;4307;53.868;11.680;2023-04-04T00:54:20;1.97;;;1.43;;
8538;SDS011;4307;53.868;11.680;2023-04-04T00:56:47;1.97;;;1.77;;
8538;SDS011;4307;53.868;11.680;2023-04-04T00:59:19;2.97;;;2.07;;
8538;SDS011;4307;53.868;11.680;2023-04-04T01:01:47;1.57;;;1.47;;
8538;SDS011;4307;53.868;11.680;2023-04-04T01:04:14;1.60;;;1.50;;
8538;SDS011;4307;53.868;11.680;2023-04-04T01:06:41;3.37;;;1.80;;
8538;SDS011;4307;53.868;11.680;2023-04-04T01:09:09;2.57;;;1.80;;
8538;SDS011;4307;53.868;11.680;2023-04-04T01:11:36;2.10;;;1.37;;
8538;SDS011;4307;53.868;11.680;2023-04-04T01:14:03;1.93;;;1.53;;
8538;SDS011;4307;53.868;11.680;2023-04-04T01:16:30;1.50;;;1.33;;
8538;SDS011;4307;53.868;11.680;2023-04-04T01:18:58;6.23;;;1.77;;
8538;SDS011;4307;53.868;11.680;2023-04-04T01:21:25;2.37;;;1.90;;
8538;SDS011;4307;53.868;11.680;2023-04-04T01:23:58;1.63;;;1.13;;
8538;SDS011;4307;53.868;11.680;2023-04-04T01:26:28;3.13;;;1.10;;
8538;SDS011;4307;53.868;11.680;2023-04-04T01:28:55;2.23;;;1.43;;
8538;SDS011;4307;53.868;11.680;2023-04-04T01:31:24;3.10;;;1.30;;
8538;SDS011;4307;53.868;11.680;2023-04-04T01:34:01;3.67;;;1.30;;
8538;SDS011;4307;53.868;11.680;2023-04-04T01:36:34;6.87;;;1.70;;
8538;SDS011;4307;53.868;11.680;2023-04-04T01:39:09;1.40;;;1.17;;
8538;SDS011;4307;53.868;11.680;2023-04-04T01:41:44;6.97;;;1.77;;
8538;SDS011;4307;53.868;11.680;2023-04-04T01:44:13;2.03;;;1.40;;
8538;SDS011;4307;53.868;11.680;2023-04-04T01:46:43;1.50;;;1.30;;
8538;SDS011;4307;53.868;11.680;2023-04-04T01:49:09;2.77;;;1.57;;
8538;SDS011;4307;53.868;11.680;2023-04-04T01:51:36;1.33;;;1.23;;
8538;SDS011;4307;53.868;11.680;2023-04-04T01:54:04;1.40;;;0.70;;
8538;SDS011;4307;53.868;11.680;2023-04-04T01:56:31;2.97;;;1.80;;
8538;SDS011;4307;53.868;11.680;2023-04-04T01:58:59;3.40;;;1.57;;
8538;SDS011;4307;53.868;11.680;2023-04-04T02:01:25;1.30;;;1.20;;
8538;SDS011;4307;53.868;11.680;2023-04-04T02:03:52;1.60;;;1.40;;
8538;SDS011;4307;53.868;11.680;2023-04-04T02:06:19;2.50;;;1.43;;
8538;SDS011;4307;53.868;11.680;2023-04-04T02:08:46;4.03;;;1.43;;
8538;SDS011;4307;53.868;11.680;2023-04-04T02:11:13;1.67;;;1.13;;
8538;SDS011;4307;53.868;11.680;2023-04-04T02:13:39;1.53;;;0.97;;
8538;SDS011;4307;53.868;11.680;2023-04-04T02:16:09;2.53;;;1.10;;
8538;SDS011;4307;53.868;11.680;2023-04-04T02:18:36;1.20;;;1.07;;
8538;SDS011;4307;53.868;11.680;2023-04-04T02:21:02;8.73;;;1.53;;
8538;SDS011;4307;53.868;11.680;2023-04-04T02:23:29;1.67;;;1.57;;
8538;SDS011;4307;53.868;11.680;2023-04-04T02:25:56;3.03;;;1.30;;
8538;SDS011;4307;53.868;11.680;2023-04-04T02:28:23;2.10;;;1.90;;
8538;SDS011;4307;53.868;11.680;2023-04-04T02:30:50;1.60;;;1.30;;
8538;SDS011;4307;53.868;11.680;2023-04-04T02:33:18;1.97;;;1.40;;
8538;SDS011;4307;53.868;11.680;2023-04-04T02:35:45;2.33;;;1.20;;
8538;SDS011;4307;53.868;11.680;2023-04-04T02:38:11;3.40;;;1.17;;
8538;SDS011;4307;53.868;11.680;2023-04-04T02:40:38;2.47;;;1.17;;
8538;SDS011;4307;53.868;11.680;2023-04-04T02:43:06;3.30;;;1.70;;
8538;SDS011;4307;53.868;11.680;2023-04-04T02:45:33;2.93;;;1.17;;
8538;SDS011;4307;53.868;11.680;2023-04-04T02:47:59;1.90;;;1.80;;
8538;SDS011;4307;53.868;11.680;2023-04-04T02:50:29;6.47;;;2.07;;
8538;SDS011;4307;53.868;11.680;2023-04-04T02:52:58;1.27;;;1.07;;
8538;SDS011;4307;53.868;11.680;2023-04-04T02:55:25;2.60;;;1.43;;
8538;SDS011;4307;53.868;11.680;2023-04-04T02:57:51;2.23;;;1.90;;
8538;SDS011;4307;53.868;11.680;2023-04-04T03:00:18;4.70;;;1.37;;
8538;SDS011;4307;53.868;11.680;2023-04-04T03:02:49;1.47;;;1.30;;
8538;SDS011;4307;53.868;11.680;2023-04-04T03:05:18;4.73;;;2.23;;
8538;SDS011;4307;53.868;11.680;2023-04-04T03:07:46;2.40;;;1.73;;
8538;SDS011;4307;53.868;11.680;2023-04-04T03:10:13;1.60;;;1.13;;
8538;SDS011;4307;53.868;11.680;2023-04-04T03:12:40;1.53;;;1.33;;
8538;SDS011;4307;53.868;11.680;2023-04-04T03:15:07;1.17;;;1.17;;
8538;SDS011;4307;53.868;11.680;2023-04-04T03:17:34;1.73;;;1.30;;
8538;SDS011;4307;53.868;11.680;2023-04-04T03:20:01;1.43;;;1.33;;
8538;SDS011;4307;53.868;11.680;2023-04-04T03:22:27;2.07;;;1.87;;
8538;SDS011;4307;53.868;11.680;2023-04-04T03:24:55;1.50;;;1.40;;
8538;SDS011;4307;53.868;11.680;2023-04-04T03:27:22;4.17;;;2.80;;
8538;SDS011;4307;53.868;11.680;2023-04-04T03:29:49;4.70;;;3.10;;
8538;SDS011;4307;53.868;11.680;2023-04-04T03:32:16;7.97;;;2.50;;
8538;SDS011;4307;53.868;11.680;2023-04-04T03:34:43;5.60;;;2.70;;
8538;SDS011;4307;53.868;11.680;2023-04-04T03:37:09;3.23;;;1.43;;
8538;SDS011;4307;53.868;11.680;2023-04-04T03:39:36;2.60;;;1.93;;
8538;SDS011;4307;53.868;11.680;2023-04-04T03:42:04;3.90;;;1.67;;
8538;SDS011;4307;53.868;11.680;2023-04-04T03:44:31;8.37;;;1.47;;
8538;SDS011;4307;53.868;11.680;2023-04-04T03:46:58;3.63;;;1.57;;
8538;SDS011;4307;53.868;11.680;2023-04-04T03:49:24;2.83;;;1.83;;
8538;SDS011;4307;53.868;11.680;2023-04-04T03:51:51;1.63;;;1.53;;
8538;SDS011;4307;53.868;11.680;2023-04-04T03:54:17;5.90;;;1.83;;
8538;SDS011;4307;53.868;11.680;2023-04-04T03:56:44;1.57;;;1.30;;
8538;SDS011;4307;53.868;11.680;2023-04-04T03:59:13;2.60;;;1.43;;
8538;SDS011;4307;53.868;11.680;2023-04-04T04:01:40;4.37;;;2.30;;
8538;SDS011;4307;53.868;11.680;2023-04-04T04:04:06;1.67;;;1.40;;
8538;SDS011;4307;53.868;11.680;2023-04-04T04:06:33;1.90;;;1.23;;
8538;SDS011;4307;53.868;11.680;2023-04-04T04:08:59;4.63;;;1.23;;
8538;SDS011;4307;53.868;11.680;2023-04-04T04:11:27;3.47;;;1.60;;
8538;SDS011;4307;53.868;11.680;2023-04-04T04:13:54;1.77;;;1.20;;
8538;SDS011;4307;53.868;11.680;2023-04-04T04:16:22;1.93;;;1.37;;
8538;SDS011;4307;53.868;11.680;2023-04-04T04:18:48;3.03;;;1.10;;
8538;SDS011;4307;53.868;11.680;2023-04-04T04:21:15;1.60;;;1.40;;
8538;SDS011;4307;53.868;11.680;2023-04-04T04:23:41;3.80;;;1.87;;
8538;SDS011;4307;53.868;11.680;2023-04-04T04:26:08;3.87;;;1.23;;
8538;SDS011;4307;53.868;11.680;2023-04-04T04:28:35;1.57;;;1.10;;
8538;SDS011;4307;53.868;11.680;2023-04-04T04:31:03;4.07;;;1.80;;
8538;SDS011;4307;53.868;11.680;2023-04-04T04:33:32;2.00;;;1.47;;
8538;SDS011;4307;53.868;11.680;2023-04-04T04:35:59;2.20;;;1.63;;
8538;SDS011;4307;53.868;11.680;2023-04-04T04:38:27;3.33;;;1.17;;
8538;SDS011;4307;53.868;11.680;2023-04-04T04:40:54;2.73;;;1.73;;
8538;SDS011;4307;53.868;11.680;2023-04-04T04:43:20;3.57;;;1.37;;
8538;SDS011;4307;53.868;11.680;2023-04-04T04:45:47;5.13;;;2.10;;
8538;SDS011;4307;53.868;11.680;2023-04-04T04:48:14;1.87;;;1.50;;
8538;SDS011;4307;53.868;11.680;2023-04-04T04:50:43;3.07;;;2.03;;
8538;SDS011;4307;53.868;11.680;2023-04-04T04:53:10;2.43;;;1.97;;
8538;SDS011;4307;53.868;11.680;2023-04-04T04:55:36;2.47;;;2.03;;
8538;SDS011;4307;53.868;11.680;2023-04-04T04:58:03;3.23;;;1.87;;
8538;SDS011;4307;53.868;11.680;2023-04-04T05:00:30;5.60;;;2.37;;
8538;SDS011;4307;53.868;11.680;2023-04-04T05:02:57;4.97;;;2.40;;
8538;SDS011;4307;53.868;11.680;2023-04-04T05:05:24;1.13;;;1.07;;
8538;SDS011;4307;53.868;11.680;2023-04-04T05:07:52;2.27;;;1.73;;
8538;SDS011;4307;53.868;11.680;2023-04-04T05:10:19;2.20;;;1.80;;
8538;SDS011;4307;53.868;11.680;2023-04-04T05:12:46;3.13;;;1.73;;
8538;SDS011;4307;53.868;11.680;2023-04-04T05:15:12;5.97;;;2.27;;
8538;SDS011;4307;53.868;11.680;2023-04-04T05:17:39;4.77;;;2.10;;
8538;SDS011;4307;53.868;11.680;2023-04-04T05:20:06;6.07;;;2.97;;
8538;SDS011;4307;53.868;11.680;2023-04-04T05:22:33;6.47;;;2.30;;
8538;SDS011;4307;53.868;11.680;2023-04-04T05:25:01;4.07;;;3.67;;
8538;SDS011;4307;53.868;11.680;2023-04-04T05:27:28;3.50;;;2.27;;
8538;SDS011;4307;53.868;11.680;2023-04-04T05:29:55;5.70;;;2.33;;
8538;SDS011;4307;53.868;11.680;2023-04-04T05:32:22;4.63;;;2.53;;
8538;SDS011;4307;53.868;11.680;2023-04-04T05:34:49;3.43;;;2.50;;
8538;SDS011;4307;53.868;11.680;2023-04-04T05:37:16;2.63;;;2.07;;
8538;SDS011;4307;53.868;11.680;2023-04-04T05:39:42;5.03;;;2.53;;
8538;SDS011;4307;53.868;11.680;2023-04-04T05:42:10;2.50;;;2.27;;
8538;SDS011;4307;53.868;11.680;2023-04-04T05:44:37;3.73;;;2.27;;
8538;SDS011;4307;53.868;11.680;2023-04-04T05:47:04;6.83;;;3.30;;
8538;SDS011;4307;53.868;11.680;2023-04-04T05:49:31;3.73;;;2.83;;
8538;SDS011;4307;53.868;11.680;2023-04-04T05:51:58;4.97;;;2.30;;
8538;SDS011;4307;53.868;11.680;2023-04-04T05:54:25;3.30;;;2.90;;
8538;SDS011;4307;53.868;11.680;2023-04-04T05:56:52;3.80;;;2.47;;
8538;SDS011;4307;53.868;11.680;2023-04-04T05:59:20;5.97;;;3.10;;
8538;SDS011;4307;53.868;11.680;2023-04-04T06:01:46;2.73;;;2.37;;
8538;SDS011;4307;53.868;11.680;2023-04-04T06:04:13;3.00;;;2.00;;
8538;SDS011;4307;53.868;11.680;2023-04-04T06:06:40;3.10;;;2.03;;
8538;SDS011;4307;53.868;11.680;2023-04-04T06:09:06;4.87;;;2.73;;
8538;SDS011;4307;53.868;11.680;2023-04-04T06:11:33;3.97;;;2.60;;
8538;SDS011;4307;53.868;11.680;2023-04-04T06:14:00;4.37;;;3.10;;
8538;SDS011;4307;53.868;11.680;2023-04-04T06:16:28;4.33;;;2.97;;
8538;SDS011;4307;53.868;11.680;2023-04-04T06:18:57;7.67;;;3.20;;
8538;SDS011;4307;53.868;11.680;2023-04-04T06:21:24;4.20;;;3.20;;
8538;SDS011;4307;53.868;11.680;2023-04-04T06:23:51;5.07;;;2.97;;
8538;SDS011;4307;53.868;11.680;2023-04-04T06:26:17;8.50;;;3.50;;
8538;SDS011;4307;53.868;11.680;2023-04-04T06:28:47;7.97;;;3.57;;
8538;SDS011;4307;53.868;11.680;2023-04-04T06:31:14;5.27;;;3.40;;
8538;SDS011;4307;53.868;11.680;2023-04-04T06:33:42;6.57;;;2.83;;
8538;SDS011;4307;53.868;11.680;2023-04-04T06:36:09;7.97;;;3.30;;
8538;SDS011;4307;53.868;11.680;2023-04-04T06:38:36;4.63;;;3.40;;
8538;SDS011;4307;53.868;11.680;2023-04-04T06:41:02;3.90;;;3.57;;
8538;SDS011;4307;53.868;11.680;2023-04-04T06:43:29;4.93;;;3.60;;
8538;SDS011;4307;53.868;11.680;2023-04-04T06:45:56;7.37;;;3.27;;
8538;SDS011;4307;53.868;11.680;2023-04-04T06:48:22;4.03;;;2.63;;
8538;SDS011;4307;53.868;11.680;2023-04-04T06:50:51;6.17;;;2.80;;
8538;SDS011;4307;53.868;11.680;2023-04-04T06:53:17;3.83;;;2.73;;
8538;SDS011;4307;53.868;11.680;2023-04-04T06:55:44;4.87;;;2.93;;
8538;SDS011;4307;53.868;11.680;2023-04-04T06:58:11;3.93;;;2.57;;
8538;SDS011;4307;53.868;11.680;2023-04-04T07:00:37;4.83;;;2.37;;
8538;SDS011;4307;53.868;11.680;2023-04-04T07:03:04;5.17;;;2.80;;
8538;SDS011;4307;53.868;11.680;2023-04-04T07:05:31;9.23;;;3.20;;
8538;SDS011;4307;53.868;11.680;2023-04-04T07:07:59;6.93;;;2.70;;
8538;SDS011;4307;53.868;11.680;2023-04-04T07:10:25;3.80;;;2.57;;
8538;SDS011;4307;53.868;11.680;2023-04-04T07:12:52;10.10;;;3.27;;
8538;SDS011;4307;53.868;11.680;2023-04-04T07:15:18;7.93;;;2.90;;
8538;SDS011;4307;53.868;11.680;2023-04-04T07:17:45;2.60;;;2.40;;
8538;SDS011;4307;53.868;11.680;2023-04-04T07:20:12;4.70;;;2.60;;
8538;SDS011;4307;53.868;11.680;2023-04-04T07:22:39;5.43;;;3.10;;
8538;SDS011;4307;53.868;11.680;2023-04-04T07:25:08;3.50;;;2.80;;
8538;SDS011;4307;53.868;11.680;2023-04-04T07:27:34;7.90;;;3.77;;
8538;SDS011;4307;53.868;11.680;2023-04-04T07:30:01;4.47;;;3.57;;
8538;SDS011;4307;53.868;11.680;2023-04-04T07:32:28;4.83;;;3.37;;
8538;SDS011;4307;53.868;11.680;2023-04-04T07:34:55;4.83;;;3.27;;
8538;SDS011;4307;53.868;11.680;2023-04-04T07:37:22;6.03;;;3.13;;
8538;SDS011;4307;53.868;11.680;2023-04-04T07:39:50;5.27;;;2.77;;
8538;SDS011;4307;53.868;11.680;2023-04-04T07:42:19;4.90;;;3.40;;
8538;SDS011;4307;53.868;11.680;2023-04-04T07:44:48;4.70;;;3.30;;
8538;SDS011;4307;53.868;11.680;2023-04-04T07:47:15;6.17;;;3.37;;
8538;SDS011;4307;53.868;11.680;2023-04-04T07:49:42;4.20;;;3.60;;
8538;SDS011;4307;53.868;11.680;2023-04-04T07:52:09;6.03;;;2.97;;
8538;SDS011;4307;53.868;11.680;2023-04-04T07:54:36;6.07;;;3.20;;
8538;SDS011;4307;53.868;11.680;2023-04-04T07:57:04;7.70;;;3.30;;
8538;SDS011;4307;53.868;11.680;2023-04-04T07:59:34;5.37;;;3.63;;
8538;SDS011;4307;53.868;11.680;2023-04-04T08:02:01;3.77;;;3.00;;
8538;SDS011;4307;53.868;11.680;2023-04-04T08:04:28;3.77;;;3.47;;
8538;SDS011;4307;53.868;11.680;2023-04-04T08:06:54;10.57;;;5.60;;
8538;SDS011;4307;53.868;11.680;2023-04-04T08:09:21;7.53;;;4.80;;
8538;SDS011;4307;53.868;11.680;2023-04-04T08:11:48;7.33;;;3.43;;
8538;SDS011;4307;53.868;11.680;2023-04-04T08:14:15;5.47;;;2.97;;
8538;SDS011;4307;53.868;11.680;2023-04-04T08:16:43;7.07;;;3.40;;
8538;SDS011;4307;53.868;11.680;2023-04-04T08:19:10;4.53;;;2.70;;
8538;SDS011;4307;53.868;11.680;2023-04-04T08:21:36;6.97;;;3.17;;
8538;SDS011;4307;53.868;11.680;2023-04-04T08:24:03;5.17;;;3.23;;
8538;SDS011;4307;53.868;11.680;2023-04-04T08:26:30;2.60;;;2.40;;
8538;SDS011;4307;53.868;11.680;2023-04-04T08:28:57;3.33;;;2.87;;
8538;SDS011;4307;53.868;11.680;2023-04-04T08:31:23;4.77;;;2.93;;
8538;SDS011;4307;53.868;11.680;2023-04-04T08:33:52;6.10;;;3.00;;
8538;SDS011;4307;53.868;11.680;2023-04-04T08:36:18;3.77;;;2.40;;
8538;SDS011;4307;53.868;11.680;2023-04-04T08:38:45;2.80;;;2.60;;
8538;SDS011;4307;53.868;11.680;2023-04-04T08:41:12;3.03;;;2.23;;
8538;SDS011;4307;53.868;11.680;2023-04-04T08:43:39;4.03;;;2.20;;
8538;SDS011;4307;53.868;11.680;2023-04-04T08:46:10;2.93;;;2.73;;
8538;SDS011;4307;53.868;11.680;2023-04-04T08:48:37;5.57;;;2.87;;
8538;SDS011;4307;53.868;11.680;2023-04-04T08:51:07;6.77;;;2.20;;
8538;SDS011;4307;53.868;11.680;2023-04-04T08:53:36;3.77;;;2.10;;
8538;SDS011;4307;53.868;11.680;2023-04-04T08:56:04;3.47;;;2.47;;
8538;SDS011;4307;53.868;11.680;2023-04-04T08:58:31;3.37;;;2.47;;
8538;SDS011;4307;53.868;11.680;2023-04-04T09:00:58;3.97;;;1.80;;
8538;SDS011;4307;53.868;11.680;2023-04-04T09:03:25;4.10;;;2.40;;
8538;SDS011;4307;53.868;11.680;2023-04-04T09:05:55;2.67;;;2.20;;
8538;SDS011;4307;53.868;11.680;2023-04-04T09:08:23;5.07;;;2.20;;
8538;SDS011;4307;53.868;11.680;2023-04-04T09:10:49;4.77;;;1.83;;
8538;SDS011;4307;53.868;11.680;2023-04-04T09:13:17;2.77;;;1.90;;
8538;SDS011;4307;53.868;11.680;2023-04-04T09:15:45;3.47;;;2.00;;
8538;SDS011;4307;53.868;11.680;2023-04-04T09:18:13;4.57;;;2.17;;
8538;SDS011;4307;53.868;11.680;2023-04-04T09:20:40;3.10;;;2.13;;
8538;SDS011;4307;53.868;11.680;2023-04-04T09:23:08;3.50;;;2.00;;
8538;SDS011;4307;53.868;11.680;2023-04-04T09:25:38;4.20;;;1.80;;
8538;SDS011;4307;53.868;11.680;2023-04-04T09:28:12;4.40;;;1.70;;
8538;SDS011;4307;53.868;11.680;2023-04-04T09:30:39;2.57;;;1.60;;
8538;SDS011;4307;53.868;11.680;2023-04-04T09:33:07;2.90;;;1.90;;
8538;SDS011;4307;53.868;11.680;2023-04-04T09:35:37;3.40;;;2.10;;
8538;SDS011;4307;53.868;11.680;2023-04-04T09:38:05;3.93;;;2.40;;
8538;SDS011;4307;53.868;11.680;2023-04-04T09:40:33;4.87;;;1.77;;
8538;SDS011;4307;53.868;11.680;2023-04-04T09:43:02;2.53;;;1.70;;
8538;SDS011;4307;53.868;11.680;2023-04-04T09:45:32;4.83;;;2.00;;
8538;SDS011;4307;53.868;11.680;2023-04-04T09:48:00;2.40;;;1.70;;
8538;SDS011;4307;53.868;11.680;2023-04-04T09:50:27;1.87;;;1.47;;
8538;SDS011;4307;53.868;11.680;2023-04-04T09:52:55;3.10;;;2.13;;
8538;SDS011;4307;53.868;11.680;2023-04-04T09:55:30;2.40;;;1.30;;
8538;SDS011;4307;53.868;11.680;2023-04-04T09:57:58;3.23;;;1.50;;
8538;SDS011;4307;53.868;11.680;2023-04-04T10:00:28;3.80;;;1.40;;
8538;SDS011;4307;53.868;11.680;2023-04-04T10:03:01;2.33;;;1.70;;
8538;SDS011;4307;53.868;11.680;2023-04-04T10:05:28;4.77;;;1.40;;
8538;SDS011;4307;53.868;11.680;2023-04-04T10:07:55;2.67;;;1.33;;
8538;SDS011;4307;53.868;11.680;2023-04-04T10:10:22;1.43;;;1.30;;
8538;SDS011;4307;53.868;11.680;2023-04-04T10:12:51;3.10;;;1.43;;
8538;SDS011;4307;53.868;11.680;2023-04-04T10:15:18;3.50;;;1.10;;
8538;SDS011;4307;53.868;11.680;2023-04-04T10:17:49;1.40;;;1.30;;
8538;SDS011;4307;53.868;11.680;2023-04-04T10:20:19;3.13;;;1.50;;
8538;SDS011;4307;53.868;11.680;2023-04-04T10:22:47;2.70;;;1.20;;
8538;SDS011;4307;53.868;11.680;2023-04-04T10:25:14;1.93;;;1.13;;
8538;SDS011;4307;53.868;11.680;2023-04-04T10:27:41;4.43;;;1.50;;
8538;SDS011;4307;53.868;11.680;2023-04-04T10:30:08;2.33;;;1.70;;
8538;SDS011;4307;53.868;11.680;2023-04-04T10:32:36;1.37;;;1.17;;
8538;SDS011;4307;53.868;11.680;2023-04-04T10:35:16;1.40;;;1.30;;
8538;SDS011;4307;53.868;11.680;2023-04-04T10:37:49;2.20;;;1.47;;
8538;SDS011;4307;53.868;11.680;2023-04-04T10:40:22;3.30;;;1.20;;
8538;SDS011;4307;53.868;11.680;2023-04-04T10:42:51;3.07;;;1.37;;
8538;SDS011;4307;53.868;11.680;2023-04-04T10:45:20;1.43;;;1.03;;
8538;SDS011;4307;53.868;11.680;2023-04-04T10:47:47;1.30;;;1.20;;
8538;SDS011;4307;53.868;11.680;2023-04-04T10:50:16;2.90;;;1.33;;
8538;SDS011;4307;53.868;11.680;2023-04-04T10:52:45;4.60;;;1.47;;
8538;SDS011;4307;53.868;11.680;2023-04-04T10:55:12;2.13;;;1.37;;
8538;SDS011;4307;53.868;11.680;2023-04-04T10:57:41;1.30;;;1.13;;
8538;SDS011;4307;53.868;11.680;2023-04-04T11:00:09;4.33;;;1.50;;
8538;SDS011;4307;53.868;11.680;2023-04-04T11:02:45;2.80;;;1.90;;
8538;SDS011;4307;53.868;11.680;2023-04-04T11:05:15;1.70;;;1.50;;
8538;SDS011;4307;53.868;11.680;2023-04-04T11:07:46;3.07;;;1.90;;
8538;SDS011;4307;53.868;11.680;2023-04-04T11:10:20;2.50;;;1.50;;
8538;SDS011;4307;53.868;11.680;2023-04-04T11:12:50;3.00;;;1.83;;
8538;SDS011;4307;53.868;11.680;2023-04-04T11:15:19;2.97;;;2.17;;
8538;SDS011;4307;53.868;11.680;2023-04-04T11:20:32;2.33;;;1.40;;
8538;SDS011;4307;53.868;11.680;2023-04-04T11:23:01;1.93;;;1.70;;
8538;SDS011;4307;53.868;11.680;2023-04-04T11:25:35;2.20;;;1.43;;
8538;SDS011;4307;53.868;11.680;2023-04-04T11:28:05;3.17;;;1.70;;
8538;SDS011;4307;53.868;11.680;2023-04-04T11:30:36;5.10;;;1.40;;
8538;SDS011;4307;53.868;11.680;2023-04-04T11:33:08;4.07;;;1.50;;
8538;SDS011;4307;53.868;11.680;2023-04-04T11:35:38;2.47;;;1.53;;
8538;SDS011;4307;53.868;11.680;2023-04-04T11:38:15;2.10;;;1.90;;
8538;SDS011;4307;53.868;11.680;2023-04-04T11:40:42;3.53;;;1.87;;
8538;SDS011;4307;53.868;11.680;2023-04-04T11:43:18;2.40;;;1.70;;
8538;SDS011;4307;53.868;11.680;2023-04-04T11:45:45;5.33;;;2.00;;
8538;SDS011;4307;53.868;11.680;2023-04-04T11:48:13;1.93;;;1.63;;
8538;SDS011;4307;53.868;11.680;2023-04-04T11:50:44;1.50;;;1.40;;
8538;SDS011;4307;53.868;11.680;2023-04-04T11:53:15;2.03;;;1.50;;
8538;SDS011;4307;53.868;11.680;2023-04-04T11:55:42;4.33;;;1.70;;
8538;SDS011;4307;53.868;11.680;2023-04-04T11:58:11;2.27;;;1.43;;
8538;SDS011;4307;53.868;11.680;2023-04-04T12:00:41;9.90;;;6.43;;
8538;SDS011;4307;53.868;11.680;2023-04-04T12:03:09;2.77;;;2.23;;
8538;SDS011;4307;53.868;11.680;2023-04-04T12:05:36;2.47;;;1.47;;
8538;SDS011;4307;53.868;11.680;2023-04-04T12:08:05;2.40;;;1.77;;
8538;SDS011;4307;53.868;11.680;2023-04-04T12:10:33;2.10;;;1.90;;
8538;SDS011;4307;53.868;11.680;2023-04-04T12:13:01;2.90;;;2.00;;
8538;SDS011;4307;53.868;11.680;2023-04-04T12:15:32;2.13;;;1.70;;
8538;SDS011;4307;53.868;11.680;2023-04-04T12:17:59;1.20;;;1.10;;
8538;SDS011;4307;53.868;11.680;2023-04-04T12:20:26;5.13;;;2.30;;
8538;SDS011;4307;53.868;11.680;2023-04-04T12:22:54;1.63;;;1.50;;
8538;SDS011;4307;53.868;11.680;2023-04-04T12:25:22;4.30;;;1.63;;
8538;SDS011;4307;53.868;11.680;2023-04-04T12:27:52;1.60;;;1.40;;
8538;SDS011;4307;53.868;11.680;2023-04-04T12:30:19;4.73;;;2.03;;
8538;SDS011;4307;53.868;11.680;2023-04-04T12:32:46;1.53;;;1.43;;
8538;SDS011;4307;53.868;11.680;2023-04-04T12:35:15;2.63;;;1.97;;
8538;SDS011;4307;53.868;11.680;2023-04-04T12:37:58;3.73;;;1.77;;
8538;SDS011;4307;53.868;11.680;2023-04-04T12:40:34;3.30;;;2.20;;
8538;SDS011;4307;53.868;11.680;2023-04-04T12:43:02;2.20;;;1.57;;
8538;SDS011;4307;53.868;11.680;2023-04-04T12:45:30;2.20;;;2.00;;
8538;SDS011;4307;53.868;11.680;2023-04-04T12:47:57;2.97;;;1.67;;
8538;SDS011;4307;53.868;11.680;2023-04-04T12:50:26;4.70;;;2.17;;
8538;SDS011;4307;53.868;11.680;2023-04-04T12:52:53;2.47;;;2.10;;
8538;SDS011;4307;53.868;11.680;2023-04-04T12:55:21;3.20;;;1.60;;
8538;SDS011;4307;53.868;11.680;2023-04-04T12:57:50;2.67;;;1.83;;
8538;SDS011;4307;53.868;11.680;2023-04-04T13:00:18;3.30;;;2.00;;
8538;SDS011;4307;53.868;11.680;2023-04-04T13:02:47;2.47;;;1.80;;
8538;SDS011;4307;53.868;11.680;2023-04-04T13:05:16;2.07;;;1.70;;
8538;SDS011;4307;53.868;11.680;2023-04-04T13:07:46;2.50;;;1.30;;
8538;SDS011;4307;53.868;11.680;2023-04-04T13:10:13;2.63;;;2.10;;
8538;SDS011;4307;53.868;11.680;2023-04-04T13:12:55;2.93;;;1.90;;
8538;SDS011;4307;53.868;11.680;2023-04-04T13:18:15;3.03;;;2.00;;
8538;SDS011;4307;53.868;11.680;2023-04-04T13:20:45;2.63;;;2.13;;
8538;SDS011;4307;53.868;11.680;2023-04-04T13:23:11;4.10;;;1.90;;
8538;SDS011;4307;53.868;11.680;2023-04-04T13:25:38;2.77;;;1.90;;
8538;SDS011;4307;53.868;11.680;2023-04-04T13:28:06;2.33;;;1.80;;
8538;SDS011;4307;53.868;11.680;2023-04-04T13:30:35;1.93;;;1.60;;
8538;SDS011;4307;53.868;11.680;2023-04-04T13:33:02;2.53;;;2.03;;
8538;SDS011;4307;53.868;11.680;2023-04-04T13:35:30;2.93;;;1.67;;
8538;SDS011;4307;53.868;11.680;2023-04-04T13:37:57;2.67;;;1.53;;
8538;SDS011;4307;53.868;11.680;2023-04-04T13:40:23;2.30;;;1.70;;
8538;SDS011;4307;53.868;11.680;2023-04-04T13:42:51;3.03;;;1.90;;
8538;SDS011;4307;53.868;11.680;2023-04-04T13:45:19;2.60;;;1.77;;
8538;SDS011;4307;53.868;11.680;2023-04-04T13:47:45;1.40;;;1.30;;
8538;SDS011;4307;53.868;11.680;2023-04-04T13:50:12;2.23;;;1.70;;
8538;SDS011;4307;53.868;11.680;2023-04-04T13:52:39;2.00;;;1.80;;
8538;SDS011;4307;53.868;11.680;2023-04-04T13:55:06;2.57;;;2.37;;
8538;SDS011;4307;53.868;11.680;2023-04-04T13:57:33;3.63;;;2.10;;
8538;SDS011;4307;53.868;11.680;2023-04-04T14:00:00;2.77;;;1.80;;
8538;SDS011;4307;53.868;11.680;2023-04-04T14:02:29;2.73;;;1.47;;
8538;SDS011;4307;53.868;11.680;2023-04-04T14:04:55;2.90;;;1.80;;
8538;SDS011;4307;53.868;11.680;2023-04-04T14:07:22;4.53;;;2.00;;
8538;SDS011;4307;53.868;11.680;2023-04-04T14:09:49;1.50;;;1.40;;
8538;SDS011;4307;53.868;11.680;2023-04-04T14:12:15;1.90;;;1.80;;
8538;SDS011;4307;53.868;11.680;2023-04-04T14:14:42;3.23;;;1.93;;
8538;SDS011;4307;53.868;11.680;2023-04-04T14:17:09;3.70;;;2.13;;
8538;SDS011;4307;53.868;11.680;2023-04-04T14:19:38;5.23;;;2.37;;
8538;SDS011;4307;53.868;11.680;2023-04-04T14:22:04;2.30;;;1.67;;
8538;SDS011;4307;53.868;11.680;2023-04-04T14:24:31;3.23;;;1.80;;
8538;SDS011;4307;53.868;11.680;2023-04-04T14:26:58;3.23;;;1.80;;
8538;SDS011;4307;53.868;11.680;2023-04-04T14:29:25;3.00;;;1.80;;
8538;SDS011;4307;53.868;11.680;2023-04-04T14:31:51;2.87;;;2.07;;
8538;SDS011;4307;53.868;11.680;2023-04-04T14:34:19;2.37;;;1.27;;
8538;SDS011;4307;53.868;11.680;2023-04-04T14:36:47;4.03;;;1.60;;
8538;SDS011;4307;53.868;11.680;2023-04-04T14:39:14;5.93;;;1.70;;
8538;SDS011;4307;53.868;11.680;2023-04-04T14:41:40;4.20;;;1.93;;
8538;SDS011;4307;53.868;11.680;2023-04-04T14:44:07;1.83;;;1.60;;
8538;SDS011;4307;53.868;11.680;2023-04-04T14:46:34;1.63;;;1.53;;
8538;SDS011;4307;53.868;11.680;2023-04-04T14:49:01;7.03;;;2.03;;
8538;SDS011;4307;53.868;11.680;2023-04-04T14:51:30;2.80;;;1.80;;
8538;SDS011;4307;53.868;11.680;2023-04-04T14:53:58;4.63;;;2.20;;
8538;SDS011;4307;53.868;11.680;2023-04-04T14:56:25;2.13;;;1.77;;
8538;SDS011;4307;53.868;11.680;2023-04-04T14:58:52;3.27;;;2.00;;
8538;SDS011;4307;53.868;11.680;2023-04-04T15:01:18;3.00;;;1.63;;
8538;SDS011;4307;53.868;11.680;2023-04-04T15:03:46;3.20;;;1.77;;
8538;SDS011;4307;53.868;11.680;2023-04-04T15:06:13;3.40;;;1.83;;
8538;SDS011;4307;53.868;11.680;2023-04-04T15:08:40;3.03;;;1.80;;